Terminal Aerodrome Forecast
Issued by NWS

Home | Current Version | Previous Version | Graphics & Text | Print | Product List | Glossary On
Versions: 1 2 3 4 5 6 7 8 9 10 11 12 13 14 15 16 17 18
141
FTUS43 KICT 021121
TAFCNU
TAF
KCNU 021121Z 0212/0312 34009KT P6SM SCT015 OVC035
     FM022100 35008KT P6SM BKN040
     FM030300 35005KT P6SM SCT250=

USA.gov is the U.S. government's official web portal to all federal, state and local government web resources and services.